createdAt,value
2018-10-16T00:01:27.350Z,60.15
2018-10-16T00:03:56.589Z,60.56
2018-10-16T00:06:25.685Z,60.91
2018-10-16T00:08:54.732Z,60.66
2018-10-16T00:11:23.926Z,60.22
2018-10-16T00:13:53.013Z,60.64
2018-10-16T00:16:22.246Z,59.59
2018-10-16T00:18:51.299Z,59.55
2018-10-16T00:21:20.445Z,59.81
2018-10-16T00:23:49.593Z,60.39
2018-10-16T00:26:18.720Z,59.91
2018-10-16T00:28:47.819Z,60.34
2018-10-16T00:31:19.899Z,60.53
2018-10-16T00:33:48.991Z,60.57
2018-10-16T00:36:18.108Z,59.43
2018-10-16T00:38:47.232Z,59.95
2018-10-16T00:41:16.356Z,59.57
2018-10-16T00:43:45.510Z,61.39
2018-10-16T00:46:14.750Z,61.01
2018-10-16T00:48:43.901Z,60.94
2018-10-16T00:51:13.046Z,60.84
2018-10-16T00:53:42.174Z,61.17
2018-10-16T00:56:11.337Z,60.20
2018-10-16T00:58:40.388Z,61.43
2018-10-16T01:01:09.616Z,60.73
2018-10-16T01:03:38.747Z,61.21
2018-10-16T01:06:07.884Z,61.81
2018-10-16T01:08:36.993Z,61.71
2018-10-16T01:11:10.185Z,61.72
2018-10-16T01:13:39.602Z,62.23
2018-10-16T01:16:08.756Z,62.61
2018-10-16T01:18:37.860Z,64.82
2018-10-16T01:21:07.370Z,64.79
2018-10-16T01:23:36.575Z,64.70
2018-10-16T01:26:05.951Z,64.09
2018-10-16T01:28:35.212Z,63.01
2018-10-16T01:31:04.345Z,62.66
2018-10-16T01:33:33.513Z,63.35
2018-10-16T01:36:02.635Z,64.50
2018-10-16T01:38:31.765Z,65.81
2018-10-16T01:41:08.374Z,64.78
2018-10-16T01:43:37.948Z,63.74
2018-10-16T01:46:07.031Z,63.96
2018-10-16T01:48:36.253Z,63.59
2018-10-16T01:51:05.434Z,63.85
2018-10-16T01:53:41.171Z,64.24
2018-10-16T01:56:10.277Z,63.36
2018-10-16T01:58:39.510Z,63.91
2018-10-16T02:01:08.645Z,63.93
2018-10-16T02:06:30.996Z,63.39
2018-10-16T02:09:00.184Z,64.07
2018-10-16T02:11:29.304Z,63.70
2018-10-16T02:13:58.405Z,63.94
2018-10-16T02:16:27.500Z,64.91
2018-10-16T02:18:56.657Z,63.84
2018-10-16T02:21:25.840Z,63.30
2018-10-16T02:23:55.077Z,62.75
2018-10-16T02:26:24.193Z,63.23
2018-10-16T02:28:53.322Z,64.16
2018-10-16T02:31:22.460Z,63.58
2018-10-16T02:33:51.609Z,64.17
2018-10-16T02:36:20.941Z,63.71
2018-10-16T02:38:50.129Z,63.56
2018-10-16T02:41:19.219Z,63.73
2018-10-16T02:43:48.438Z,63.34
2018-10-16T02:46:17.587Z,63.73
2018-10-16T02:48:46.783Z,65.49
2018-10-16T02:51:15.898Z,66.73
2018-10-16T02:53:45.332Z,66.30
2018-10-16T02:56:14.474Z,68.14
2018-10-16T02:58:44.143Z,67.89
2018-10-16T03:01:13.565Z,67.66
2018-10-16T03:03:43.113Z,67.44
2018-10-16T03:06:12.873Z,67.89
2018-10-16T03:08:42.053Z,67.25
2018-10-16T03:11:11.146Z,66.83
2018-10-16T03:13:40.259Z,65.73
2018-10-16T03:16:09.476Z,67.89
2018-10-16T03:18:38.577Z,67.82
2018-10-16T03:21:07.750Z,66.95
2018-10-16T03:23:36.885Z,68.07
2018-10-16T03:26:06.065Z,68.25
2018-10-16T03:28:35.266Z,69.63
2018-10-16T03:31:04.432Z,67.63
2018-10-16T03:33:33.585Z,69.90
2018-10-16T03:36:02.742Z,69.81
2018-10-16T03:38:31.861Z,69.78
2018-10-16T03:41:01.045Z,69.74
2018-10-16T03:43:30.180Z,70.29
2018-10-16T03:45:59.369Z,71.34
2018-10-16T03:48:28.462Z,71.42
2018-10-16T03:50:57.635Z,71.84
2018-10-16T03:53:26.792Z,69.40
2018-10-16T03:55:55.905Z,68.37
2018-10-16T03:58:25.025Z,67.45
2018-10-16T04:00:54.142Z,67.41
2018-10-16T04:03:23.270Z,66.97
2018-10-16T04:05:52.477Z,65.94
2018-10-16T04:08:21.573Z,65.48
2018-10-16T04:10:50.676Z,66.07
2018-10-16T04:13:19.818Z,66.23
2018-10-16T04:15:48.996Z,66.51
2018-10-16T04:18:18.118Z,66.04
2018-10-16T04:20:47.314Z,67.62
2018-10-16T04:23:16.379Z,68.03
2018-10-16T04:25:45.513Z,68.58
2018-10-16T04:28:14.609Z,68.63
2018-10-16T04:30:43.753Z,67.96
2018-10-16T04:33:12.881Z,68.05
2018-10-16T04:35:41.992Z,68.36
2018-10-16T04:38:11.189Z,69.74
2018-10-16T04:40:40.237Z,68.61
2018-10-16T04:43:09.364Z,67.45
2018-10-16T04:45:38.490Z,66.78
2018-10-16T04:48:07.690Z,67.00
2018-10-16T04:50:36.767Z,67.17
2018-10-16T04:53:06.356Z,66.42
2018-10-16T04:55:35.520Z,66.33
2018-10-16T04:58:04.693Z,65.82
2018-10-16T05:00:33.816Z,66.80
2018-10-16T05:03:03.325Z,66.43
2018-10-16T05:05:32.486Z,67.14
2018-10-16T05:08:01.609Z,65.76
2018-10-16T05:10:30.761Z,65.80
2018-10-16T05:13:00.070Z,65.90
2018-10-16T05:15:31.416Z,65.93
2018-10-16T05:18:00.566Z,65.61
2018-10-16T05:20:29.677Z,66.66
2018-10-16T05:22:59.971Z,65.73
2018-10-16T05:25:30.072Z,66.79
2018-10-16T05:27:59.395Z,66.22
2018-10-16T05:30:28.463Z,67.30
2018-10-16T05:32:57.713Z,66.42
2018-10-16T05:35:26.817Z,67.09
2018-10-16T05:37:55.990Z,67.97
2018-10-16T05:40:25.157Z,68.00
2018-10-16T05:42:54.287Z,68.08
2018-10-16T05:45:23.843Z,67.95
2018-10-16T05:47:53.111Z,68.33
2018-10-16T05:50:22.399Z,67.82
2018-10-16T05:52:51.685Z,67.92
2018-10-16T05:55:20.991Z,67.73
2018-10-16T05:57:50.160Z,68.26
2018-10-16T06:00:29.959Z,67.92
2018-10-16T06:02:59.141Z,69.33
2018-10-16T06:05:28.371Z,70.07
2018-10-16T06:07:57.576Z,73.08
2018-10-16T06:10:26.826Z,71.01
2018-10-16T06:12:56.141Z,69.88
2018-10-16T06:15:25.350Z,69.82
2018-10-16T06:17:54.530Z,70.47
2018-10-16T06:20:23.836Z,70.34
2018-10-16T06:22:52.984Z,69.32
2018-10-16T06:25:22.297Z,68.70
2018-10-16T06:27:51.489Z,69.65
2018-10-16T06:30:20.754Z,70.65
2018-10-16T06:32:50.737Z,70.15
2018-10-16T06:35:19.914Z,70.65
2018-10-16T06:37:49.156Z,71.64
2018-10-16T06:40:18.352Z,73.27
2018-10-16T06:42:47.744Z,73.56
2018-10-16T06:45:17.005Z,71.82
2018-10-16T06:47:46.201Z,68.97
2018-10-16T06:50:15.406Z,67.62
2018-10-16T06:52:44.963Z,65.87
2018-10-16T06:55:14.236Z,64.69
2018-10-16T06:57:43.546Z,63.34
2018-10-16T07:00:12.722Z,61.95
2018-10-16T07:02:42.007Z,62.09
2018-10-16T07:05:11.489Z,61.84
2018-10-16T07:07:40.718Z,61.08
2018-10-16T07:10:10.525Z,61.44
2018-10-16T07:12:39.925Z,60.81
2018-10-16T07:15:09.620Z,60.48
2018-10-16T07:17:38.933Z,59.52
2018-10-16T07:20:09.225Z,58.83
2018-10-16T07:22:38.555Z,58.03
2018-10-16T07:25:08.885Z,57.24
2018-10-16T07:27:39.029Z,57.52
2018-10-16T07:30:11.033Z,56.38
2018-10-16T07:32:40.177Z,56.81
2018-10-16T07:35:10.599Z,58.75
2018-10-16T07:37:40.480Z,57.00
2018-10-16T07:40:10.811Z,55.82
2018-10-16T07:42:40.454Z,53.80
2018-10-16T07:45:09.789Z,53.53
2018-10-16T07:47:39.254Z,52.34
2018-10-16T07:50:10.486Z,50.92
2018-10-16T07:52:39.839Z,51.16
2018-10-16T07:55:14.560Z,51.51
2018-10-16T07:57:44.244Z,50.89
2018-10-16T08:00:13.889Z,49.17
2018-10-16T08:02:44.054Z,48.81
2018-10-16T08:05:13.427Z,49.07
2018-10-16T08:07:42.907Z,49.40
2018-10-16T08:10:13.695Z,49.23
2018-10-16T08:12:43.646Z,51.06
2018-10-16T08:15:12.912Z,56.10
2018-10-16T08:17:42.468Z,54.44
2018-10-16T08:20:11.657Z,53.78
2018-10-16T08:22:40.858Z,54.66
2018-10-16T08:25:09.981Z,55.27
2018-10-16T08:27:39.236Z,56.06
2018-10-16T08:30:09.394Z,56.33
2018-10-16T08:32:38.548Z,58.39
2018-10-16T08:35:07.767Z,54.95
2018-10-16T08:39:52.666Z,52.97
2018-10-16T08:43:37.370Z,53.99
2018-10-16T08:46:17.432Z,51.75
2018-10-16T08:48:57.643Z,51.79
2018-10-16T08:51:32.145Z,51.56
2018-10-16T08:54:01.361Z,50.17
2018-10-16T08:56:30.992Z,48.80
2018-10-16T08:59:00.717Z,46.83
2018-10-16T09:01:30.287Z,47.23
2018-10-16T09:04:00.012Z,47.80
2018-10-16T09:06:29.329Z,46.49
2018-10-16T09:08:58.588Z,45.46
2018-10-16T09:11:27.741Z,45.41
2018-10-16T09:13:57.005Z,44.82
2018-10-16T09:16:26.225Z,43.79
2018-10-16T09:18:55.415Z,44.97
2018-10-16T09:21:24.678Z,43.96
2018-10-16T09:23:53.888Z,45.83
2018-10-16T09:26:23.188Z,47.50
2018-10-16T09:28:52.380Z,48.73
2018-10-16T09:31:21.482Z,45.29
2018-10-16T09:33:50.687Z,44.92
2018-10-16T09:36:19.901Z,45.93
2018-10-16T09:38:49.198Z,44.08
2018-10-16T09:41:18.673Z,42.24
2018-10-16T09:43:47.929Z,41.81
2018-10-16T09:46:17.181Z,40.74
2018-10-16T09:48:46.392Z,39.93
2018-10-16T09:51:15.596Z,39.61
2018-10-16T09:53:44.812Z,39.79
2018-10-16T09:56:14.033Z,40.43
2018-10-16T09:58:43.209Z,40.54
2018-10-16T10:01:17.434Z,39.07
2018-10-16T10:03:46.621Z,38.01
2018-10-16T10:06:15.887Z,38.41
2018-10-16T10:08:45.078Z,39.62
2018-10-16T10:11:14.459Z,40.44
2018-10-16T10:13:43.664Z,38.52
2018-10-16T10:16:12.926Z,37.77
2018-10-16T10:18:42.262Z,38.80
2018-10-16T10:21:11.521Z,38.24
2018-10-16T10:23:40.755Z,37.81
2018-10-16T10:26:10.043Z,38.86
2018-10-16T10:28:39.284Z,36.41
2018-10-16T10:31:08.657Z,36.88
2018-10-16T10:33:37.978Z,36.24
2018-10-16T10:36:07.181Z,35.28
2018-10-16T10:38:36.421Z,34.78
2018-10-16T10:41:05.727Z,34.78
2018-10-16T10:43:34.975Z,33.79
2018-10-16T10:46:04.267Z,34.02
2018-10-16T10:48:33.373Z,34.53
2018-10-16T10:51:02.795Z,33.43
2018-10-16T10:53:31.790Z,32.46
2018-10-16T10:56:00.963Z,32.49
2018-10-16T10:58:30.249Z,30.61
2018-10-16T11:00:59.389Z,33.70
2018-10-16T11:03:28.722Z,32.20
2018-10-16T11:05:57.795Z,33.34
2018-10-16T11:08:26.922Z,32.81
2018-10-16T11:10:56.163Z,31.79
2018-10-16T11:13:25.411Z,30.25
2018-10-16T11:15:54.642Z,30.66
2018-10-16T11:18:23.861Z,30.21
2018-10-16T11:20:53.211Z,29.76
2018-10-16T11:23:22.361Z,30.26
2018-10-16T11:25:51.560Z,31.04
2018-10-16T11:28:20.716Z,30.11
2018-10-16T11:30:49.930Z,31.20
2018-10-16T11:33:19.058Z,29.97
2018-10-16T11:35:48.297Z,29.19
2018-10-16T11:38:17.589Z,28.59
2018-10-16T11:40:46.733Z,26.55
2018-10-16T11:43:16.092Z,26.61
2018-10-16T11:45:45.539Z,26.75
2018-10-16T11:48:14.856Z,26.24
2018-10-16T11:50:44.082Z,27.01
2018-10-16T11:53:14.113Z,28.24
2018-10-16T11:55:43.298Z,25.30
2018-10-16T11:58:12.660Z,25.92
2018-10-16T12:00:41.866Z,23.53
2018-10-16T12:03:11.092Z,24.63
2018-10-16T12:05:40.182Z,23.90
2018-10-16T12:08:09.363Z,24.07
2018-10-16T12:10:38.579Z,23.53
2018-10-16T12:13:07.897Z,22.86
2018-10-16T12:15:37.102Z,22.26
2018-10-16T12:18:13.095Z,22.17
2018-10-16T12:20:48.061Z,24.56
2018-10-16T12:23:17.390Z,22.68
2018-10-16T12:25:46.522Z,22.74
2018-10-16T12:28:15.708Z,21.66
2018-10-16T12:30:44.875Z,21.95
2018-10-16T12:33:14.229Z,24.24
2018-10-16T12:35:43.333Z,23.72
2018-10-16T12:38:12.730Z,23.70
2018-10-16T12:40:42.030Z,22.75
2018-10-16T12:43:11.448Z,22.06
2018-10-16T12:45:40.598Z,21.16
2018-10-16T12:48:09.845Z,20.82
2018-10-16T12:50:39.065Z,20.33
2018-10-16T12:53:08.882Z,21.68
2018-10-16T12:55:38.482Z,22.13
2018-10-16T12:58:07.910Z,19.52
2018-10-16T13:00:37.152Z,19.72
2018-10-16T13:03:06.467Z,20.38
2018-10-16T13:05:35.715Z,19.54
2018-10-16T13:08:04.986Z,19.81
2018-10-16T13:10:34.181Z,19.52
2018-10-16T13:13:03.317Z,21.14
2018-10-16T13:15:32.885Z,20.71
2018-10-16T13:18:02.313Z,21.57
2018-10-16T13:20:31.856Z,22.60
2018-10-16T13:23:01.432Z,22.73
2018-10-16T13:25:30.895Z,22.17
2018-10-16T13:28:00.310Z,20.36
2018-10-16T13:30:29.906Z,19.92
2018-10-16T13:32:59.359Z,18.84
2018-10-16T13:35:29.076Z,20.57
2018-10-16T13:37:58.455Z,18.89
2018-10-16T13:40:27.990Z,20.01
2018-10-16T13:42:57.457Z,19.27
2018-10-16T13:45:26.677Z,19.32
2018-10-16T13:47:55.930Z,20.05
2018-10-16T13:50:25.137Z,17.89
2018-10-16T13:52:54.396Z,17.12
2018-10-16T13:55:23.592Z,16.68
2018-10-16T13:57:52.836Z,16.57
2018-10-16T14:00:22.280Z,16.13
2018-10-16T14:02:52.766Z,17.90
2018-10-16T14:05:22.325Z,16.94
2018-10-16T14:07:51.564Z,18.91
2018-10-16T14:10:20.839Z,17.47
2018-10-16T14:12:50.170Z,16.49
2018-10-16T14:15:19.804Z,17.71
2018-10-16T14:17:49.013Z,15.80
2018-10-16T14:20:18.268Z,14.77
2018-10-16T14:22:47.494Z,15.12
2018-10-16T14:25:17.012Z,14.93
2018-10-16T14:27:46.295Z,15.11
2018-10-16T14:30:16.533Z,14.38
2018-10-16T14:32:45.694Z,15.39
2018-10-16T14:35:15.321Z,16.10
2018-10-16T14:37:44.616Z,17.55
2018-10-16T14:40:15.111Z,19.61
2018-10-16T14:42:44.754Z,16.71
2018-10-16T14:45:14.574Z,16.82
2018-10-16T14:47:43.749Z,18.08
2018-10-16T14:50:14.195Z,19.89
2018-10-16T14:52:43.550Z,20.86
2018-10-16T14:55:12.763Z,21.08
2018-10-16T14:57:42.148Z,20.19
2018-10-16T15:00:12.826Z,21.05
2018-10-16T15:02:42.174Z,22.29
2018-10-16T15:05:12.410Z,22.46
2018-10-16T15:07:41.762Z,21.50
2018-10-16T15:10:11.369Z,22.89
2018-10-16T15:12:40.786Z,22.88
2018-10-16T15:15:10.290Z,23.26
2018-10-16T15:17:39.547Z,23.90
2018-10-16T15:20:10.281Z,24.91
2018-10-16T15:22:39.559Z,24.64
2018-10-16T15:25:09.656Z,24.48
2018-10-16T15:27:38.905Z,25.08
2018-10-16T15:30:09.381Z,25.85
2018-10-16T15:32:38.711Z,26.14
2018-10-16T15:35:09.265Z,26.62
2018-10-16T15:37:38.517Z,26.37
2018-10-16T15:40:09.112Z,26.97
2018-10-16T15:42:38.363Z,27.53
2018-10-16T15:45:09.271Z,28.13
2018-10-16T15:47:38.683Z,28.73
2018-10-16T15:50:08.408Z,28.82
2018-10-16T15:52:37.621Z,28.29
2018-10-16T15:55:07.810Z,28.89
2018-10-16T15:57:37.146Z,28.59
2018-10-16T16:00:09.640Z,29.62
2018-10-16T16:02:38.954Z,28.77
2018-10-16T16:05:08.177Z,29.69
2018-10-16T16:07:37.434Z,31.28
2018-10-16T16:10:08.253Z,32.22
2018-10-16T16:12:37.852Z,31.96
2018-10-16T16:15:08.497Z,32.32
2018-10-16T16:17:38.039Z,33.23
2018-10-16T16:20:08.670Z,34.13
2018-10-16T16:22:37.890Z,34.67
2018-10-16T16:25:08.573Z,33.40
2018-10-16T16:27:39.610Z,33.40
2018-10-16T16:30:10.814Z,33.19
2018-10-16T16:32:40.190Z,33.75
2018-10-16T16:35:09.487Z,34.78
2018-10-16T16:37:38.658Z,33.86
2018-10-16T16:40:09.798Z,34.71
2018-10-16T16:42:38.944Z,34.88
2018-10-16T16:45:09.059Z,33.87
2018-10-16T16:47:38.215Z,34.56
2018-10-16T16:50:08.871Z,34.38
2018-10-16T16:52:38.248Z,34.83
2018-10-16T16:55:09.054Z,36.24
2018-10-16T16:57:38.224Z,36.80
2018-10-16T17:00:10.002Z,36.87
2018-10-16T17:02:39.694Z,36.05
2018-10-16T17:05:09.399Z,35.69
2018-10-16T17:07:38.522Z,35.65
2018-10-16T17:10:08.581Z,36.58
2018-10-16T17:12:38.194Z,37.04
2018-10-16T17:15:09.374Z,38.05
2018-10-16T17:17:39.029Z,37.03
2018-10-16T17:20:09.231Z,36.32
2018-10-16T17:22:38.418Z,35.93
2018-10-16T17:25:09.116Z,36.09
2018-10-16T17:27:38.197Z,35.92
2018-10-16T17:30:13.371Z,36.48
2018-10-16T17:32:43.110Z,36.30
2018-10-16T17:35:12.935Z,36.72
2018-10-16T17:37:43.251Z,38.77
2018-10-16T17:40:15.001Z,37.55
2018-10-16T17:42:44.241Z,37.60
2018-10-16T17:45:15.036Z,37.58
2018-10-16T17:47:44.181Z,37.05
2018-10-16T17:50:15.434Z,38.14
2018-10-16T17:52:44.678Z,38.14
2018-10-16T17:55:14.500Z,38.88
2018-10-16T17:57:43.759Z,38.91
2018-10-16T18:00:15.147Z,39.84
2018-10-16T18:02:44.926Z,40.18
2018-10-16T18:05:14.788Z,40.29
2018-10-16T18:07:44.687Z,40.09
2018-10-16T18:10:13.848Z,40.27
2018-10-16T18:12:43.098Z,40.44
2018-10-16T18:15:13.420Z,40.20
2018-10-16T18:17:43.249Z,39.39
2018-10-16T18:20:14.361Z,40.01
2018-10-16T18:22:43.875Z,40.36
2018-10-16T18:25:13.125Z,41.06
2018-10-16T18:27:43.217Z,41.04
2018-10-16T18:30:12.803Z,41.04
2018-10-16T18:32:42.230Z,42.48
2018-10-16T18:35:11.884Z,41.93
2018-10-16T18:37:42.271Z,41.08
2018-10-16T18:40:12.337Z,40.60
2018-10-16T18:42:48.171Z,42.42
2018-10-16T18:45:17.424Z,41.60
2018-10-16T18:47:46.792Z,41.48
2018-10-16T18:50:16.055Z,43.17
2018-10-16T18:52:45.810Z,42.70
2018-10-16T18:55:15.859Z,42.96
2018-10-16T18:57:45.091Z,43.14
2018-10-16T19:00:16.651Z,42.86
2018-10-16T19:02:46.133Z,43.45
2018-10-16T19:05:15.336Z,44.01
2018-10-16T19:07:44.583Z,45.42
2018-10-16T19:10:13.693Z,45.04
2018-10-16T19:12:43.150Z,45.40
2018-10-16T19:15:13.850Z,45.56
2018-10-16T19:17:43.870Z,45.62
2018-10-16T19:20:14.184Z,46.11
2018-10-16T19:22:44.153Z,45.66
2018-10-16T19:25:14.823Z,45.88
2018-10-16T19:27:44.206Z,44.82
2018-10-16T19:30:13.770Z,45.19
2018-10-16T19:32:42.969Z,44.52
2018-10-16T19:35:13.655Z,45.41
2018-10-16T19:37:43.019Z,45.09
2018-10-16T19:40:12.608Z,45.47
2018-10-16T19:42:41.882Z,46.01
2018-10-16T19:45:12.412Z,46.73
2018-10-16T19:47:41.584Z,48.01
2018-10-16T19:50:11.413Z,47.12
2018-10-16T19:52:40.741Z,46.72
2018-10-16T19:55:10.039Z,47.25
2018-10-16T19:57:39.300Z,47.87
2018-10-16T20:00:09.699Z,47.34
2018-10-16T20:02:39.014Z,48.54
2018-10-16T20:05:08.902Z,49.30
2018-10-16T20:07:38.062Z,49.38
2018-10-16T20:10:08.916Z,49.80
2018-10-16T20:12:38.120Z,49.85
2018-10-16T20:15:09.130Z,50.11
2018-10-16T20:17:38.422Z,50.82
2018-10-16T20:20:08.542Z,50.74
2018-10-16T20:22:37.738Z,50.68
2018-10-16T20:25:07.860Z,50.96
2018-10-16T20:27:37.161Z,50.64
2018-10-16T20:30:07.690Z,50.82
2018-10-16T20:32:36.830Z,50.20
2018-10-16T20:35:06.101Z,50.17
2018-10-16T20:37:35.635Z,49.59
2018-10-16T20:40:04.696Z,50.35
2018-10-16T20:42:33.846Z,50.26
2018-10-16T20:45:03.005Z,50.41
2018-10-16T20:47:32.195Z,49.92
2018-10-16T20:50:01.327Z,50.08
2018-10-16T20:52:30.503Z,50.76
2018-10-16T20:54:59.781Z,49.69
2018-10-16T20:57:28.979Z,49.63
2018-10-16T20:59:58.737Z,49.73
2018-10-16T21:02:27.891Z,51.73
2018-10-16T21:05:03.713Z,51.22
2018-10-16T21:07:32.930Z,51.76
2018-10-16T21:10:02.061Z,52.65
2018-10-16T21:12:31.156Z,52.41
2018-10-16T21:15:00.591Z,52.34
2018-10-16T21:17:30.203Z,53.21
2018-10-16T21:19:59.419Z,52.75
2018-10-16T21:22:28.566Z,53.58
2018-10-16T21:24:57.716Z,54.89
2018-10-16T21:27:26.901Z,54.25
2018-10-16T21:29:56.084Z,54.05
2018-10-16T21:32:25.199Z,53.92
2018-10-16T21:34:54.403Z,54.71
2018-10-16T21:37:23.574Z,56.11
2018-10-16T21:39:55.223Z,54.53
2018-10-16T21:42:24.401Z,55.10
2018-10-16T21:44:53.543Z,55.66
2018-10-16T21:47:22.644Z,54.63
2018-10-16T21:49:51.793Z,55.57
2018-10-16T21:52:20.932Z,55.83
2018-10-16T21:54:50.250Z,57.35
2018-10-16T21:57:19.378Z,56.33
2018-10-16T21:59:48.685Z,56.71
2018-10-16T22:02:22.778Z,56.71
2018-10-16T22:04:51.946Z,55.94
2018-10-16T22:07:21.042Z,55.57
2018-10-16T22:09:50.220Z,55.83
2018-10-16T22:12:19.388Z,55.40
2018-10-16T22:14:48.574Z,55.29
2018-10-16T22:17:17.707Z,56.67
2018-10-16T22:19:46.855Z,56.05
2018-10-16T22:22:15.999Z,56.40
2018-10-16T22:24:45.181Z,55.93
2018-10-16T22:27:14.311Z,56.44
2018-10-16T22:29:43.477Z,55.60
2018-10-16T22:32:12.653Z,55.13
2018-10-16T22:34:41.830Z,55.88
2018-10-16T22:37:10.988Z,55.71
2018-10-16T22:39:40.084Z,56.46
2018-10-16T22:42:09.203Z,56.44
2018-10-16T22:44:38.411Z,56.59
2018-10-16T22:47:07.700Z,56.47
2018-10-16T22:49:36.917Z,57.47
2018-10-16T22:52:06.475Z,56.64
2018-10-16T22:54:42.124Z,56.65
2018-10-16T22:57:11.278Z,56.67
2018-10-16T22:59:40.766Z,59.17
2018-10-16T23:02:09.962Z,58.75
2018-10-16T23:04:39.192Z,58.44
2018-10-16T23:07:08.328Z,57.72
2018-10-16T23:09:37.550Z,57.98
2018-10-16T23:12:07.189Z,58.73
2018-10-16T23:14:36.324Z,57.60
2018-10-16T23:17:05.500Z,57.63
2018-10-16T23:19:34.697Z,61.63
2018-10-16T23:22:03.761Z,61.68
2018-10-16T23:24:32.880Z,60.68
2018-10-16T23:27:01.968Z,59.97
2018-10-16T23:29:31.057Z,59.79
2018-10-16T23:32:00.243Z,59.52
2018-10-16T23:34:29.379Z,59.04
2018-10-16T23:36:58.562Z,60.00
2018-10-16T23:39:27.680Z,60.11
2018-10-16T23:41:56.807Z,60.69
2018-10-16T23:44:25.986Z,60.24
2018-10-16T23:46:55.252Z,59.33
2018-10-16T23:52:17.456Z,59.97
2018-10-16T23:54:46.658Z,60.33
2018-10-16T23:57:15.827Z,60.17
2018-10-16T23:59:44.968Z,59.94
